createdAt,value
2017-05-28T00:00:30.012Z,18.62
2017-05-28T00:01:10.904Z,18.58
2017-05-28T00:01:51.805Z,18.58
2017-05-28T00:02:32.678Z,18.58
2017-05-28T00:03:13.562Z,18.56
2017-05-28T00:03:54.464Z,18.55
2017-05-28T00:04:35.400Z,18.59
2017-05-28T00:05:16.250Z,18.58
2017-05-28T00:05:57.143Z,18.55
2017-05-28T00:06:38.058Z,18.58
2017-05-28T00:07:18.962Z,18.56
2017-05-28T00:07:59.857Z,18.5
2017-05-28T00:08:40.756Z,18.45
2017-05-28T00:09:21.694Z,18.4
2017-05-28T00:10:04.249Z,18.47
2017-05-28T00:10:45.136Z,18.41
2017-05-28T00:11:26.029Z,18.44
2017-05-28T00:12:06.952Z,18.33
2017-05-28T00:12:47.842Z,18.35
2017-05-28T00:13:28.742Z,18.34
2017-05-28T00:14:09.627Z,18.34
2017-05-28T00:14:50.520Z,18.33
2017-05-28T00:15:31.399Z,18.25
2017-05-28T00:16:12.282Z,18.29
2017-05-28T00:16:53.170Z,18.35
2017-05-28T00:17:34.076Z,18.26
2017-05-28T00:18:14.965Z,18.25
2017-05-28T00:18:55.872Z,18.28
2017-05-28T00:19:36.745Z,18.19
2017-05-28T00:20:17.634Z,18.19
2017-05-28T00:20:58.515Z,18.22
2017-05-28T00:21:39.402Z,18.23
2017-05-28T00:22:20.292Z,18.2
2017-05-28T00:23:01.185Z,18.2
2017-05-28T00:23:42.080Z,18.1
2017-05-28T00:24:22.952Z,18.16
2017-05-28T00:25:03.840Z,18.04
2017-05-28T00:25:44.726Z,18.05
2017-05-28T00:26:25.610Z,18.03
2017-05-28T00:27:06.498Z,18
2017-05-28T00:27:47.395Z,18.03
2017-05-28T00:28:28.266Z,18.03
2017-05-28T00:29:09.156Z,18.08
2017-05-28T00:29:50.016Z,18
2017-05-28T00:30:30.908Z,18.01
2017-05-28T00:31:11.826Z,17.97
2017-05-28T00:31:52.701Z,18.04
2017-05-28T00:32:33.598Z,18.04
2017-05-28T00:33:14.501Z,17.95
2017-05-28T00:33:55.386Z,17.97
2017-05-28T00:34:36.310Z,17.98
2017-05-28T00:35:17.198Z,18
2017-05-28T00:35:58.084Z,17.98
2017-05-28T00:36:38.991Z,17.98
2017-05-28T00:37:19.872Z,18.03
2017-05-28T00:38:00.758Z,17.95
2017-05-28T00:38:41.669Z,17.94
2017-05-28T00:39:22.566Z,17.94
2017-05-28T00:40:03.459Z,17.94
2017-05-28T00:41:36.700Z,18
2017-05-28T00:42:17.601Z,17.94
2017-05-28T00:42:58.495Z,17.95
2017-05-28T00:43:39.395Z,17.95
2017-05-28T00:44:20.279Z,17.97
2017-05-28T00:45:01.174Z,18.04
2017-05-28T00:45:42.062Z,18.03
2017-05-28T00:46:22.965Z,18.01
2017-05-28T00:47:03.859Z,18.05
2017-05-28T00:47:44.752Z,18
2017-05-28T00:48:25.666Z,18.01
2017-05-28T00:49:06.535Z,17.95
2017-05-28T00:49:47.420Z,18
2017-05-28T00:50:28.327Z,17.94
2017-05-28T00:51:09.210Z,17.94
2017-05-28T00:51:50.100Z,17.94
2017-05-28T00:52:31.014Z,17.86
2017-05-28T00:53:11.887Z,17.83
2017-05-28T00:53:52.780Z,17.82
2017-05-28T00:54:33.675Z,17.82
2017-05-28T00:55:14.565Z,17.87
2017-05-28T00:55:55.466Z,17.76
2017-05-28T00:56:36.398Z,17.72
2017-05-28T00:57:17.331Z,17.76
2017-05-28T00:57:58.222Z,17.76
2017-05-28T00:58:39.099Z,17.8
2017-05-28T00:59:20.002Z,17.71
2017-05-28T01:00:00.884Z,17.72
2017-05-28T01:00:41.772Z,17.63
2017-05-28T01:01:22.721Z,17.65
2017-05-28T01:02:03.546Z,17.67
2017-05-28T01:02:44.428Z,17.64
2017-05-28T01:03:25.310Z,17.59
2017-05-28T01:04:06.229Z,17.7
2017-05-28T01:04:47.126Z,17.7
2017-05-28T01:05:28.022Z,17.67
2017-05-28T01:06:08.920Z,17.59
2017-05-28T01:06:49.804Z,17.67
2017-05-28T01:07:30.717Z,17.67
2017-05-28T01:08:11.584Z,17.63
2017-05-28T01:08:52.461Z,17.59
2017-05-28T01:09:33.372Z,17.57
2017-05-28T01:10:14.260Z,17.56
2017-05-28T01:10:55.144Z,17.59
2017-05-28T01:11:36.014Z,17.59
2017-05-28T01:12:16.919Z,17.64
2017-05-28T01:12:57.862Z,17.59
2017-05-28T01:13:38.747Z,17.64
2017-05-28T01:14:19.650Z,17.63
2017-05-28T01:15:00.541Z,17.54
2017-05-28T01:15:41.426Z,17.63
2017-05-28T01:16:22.302Z,17.59
2017-05-28T01:17:03.290Z,17.6
2017-05-28T01:17:44.194Z,17.63
2017-05-28T01:18:25.066Z,17.65
2017-05-28T01:19:05.968Z,17.59
2017-05-28T01:19:46.878Z,17.63
2017-05-28T01:20:27.741Z,17.42
2017-05-28T01:21:08.643Z,17.54
2017-05-28T01:21:49.546Z,17.56
2017-05-28T01:22:30.412Z,17.57
2017-05-28T01:23:11.301Z,17.46
2017-05-28T01:23:52.199Z,17.45
2017-05-28T01:24:33.086Z,17.48
2017-05-28T01:25:13.973Z,17.39
2017-05-28T01:25:54.874Z,17.45
2017-05-28T01:26:35.765Z,17.38
2017-05-28T01:27:16.657Z,17.39
2017-05-28T01:27:57.561Z,17.39
2017-05-28T01:28:38.457Z,17.36
2017-05-28T01:29:19.358Z,17.41
2017-05-28T01:30:00.263Z,17.3
2017-05-28T01:30:41.134Z,17.34
2017-05-28T01:31:22.018Z,17.34
2017-05-28T01:32:02.914Z,17.27
2017-05-28T01:32:43.807Z,17.33
2017-05-28T01:33:24.678Z,17.29
2017-05-28T01:34:05.577Z,17.3
2017-05-28T01:34:46.482Z,17.23
2017-05-28T01:35:27.369Z,17.27
2017-05-28T01:36:08.274Z,17.2
2017-05-28T01:36:49.155Z,17.23
2017-05-28T01:37:30.050Z,17.23
2017-05-28T01:38:10.952Z,17.23
2017-05-28T01:38:51.828Z,17.06
2017-05-28T01:39:32.731Z,17.11
2017-05-28T01:40:13.617Z,17.12
2017-05-28T01:40:54.506Z,17.05
2017-05-28T01:41:35.386Z,17.08
2017-05-28T01:42:16.296Z,17.04
2017-05-28T01:42:57.185Z,17.12
2017-05-28T01:43:38.075Z,17.08
2017-05-28T01:44:18.979Z,17.08
2017-05-28T01:44:59.858Z,16.97
2017-05-28T01:45:40.733Z,17.04
2017-05-28T01:46:21.642Z,16.94
2017-05-28T01:47:02.538Z,16.99
2017-05-28T01:47:43.436Z,16.91
2017-05-28T01:48:24.346Z,16.99
2017-05-28T01:49:05.215Z,16.86
2017-05-28T01:49:46.094Z,16.9
2017-05-28T01:50:26.989Z,16.94
2017-05-28T01:51:07.878Z,16.91
2017-05-28T01:51:48.767Z,16.9
2017-05-28T01:52:29.659Z,16.9
2017-05-28T01:53:10.545Z,16.83
2017-05-28T01:53:51.425Z,16.83
2017-05-28T01:54:32.335Z,16.84
2017-05-28T01:55:13.221Z,16.83
2017-05-28T01:55:54.101Z,16.76
2017-05-28T01:56:34.977Z,16.76
2017-05-28T01:57:15.868Z,16.78
2017-05-28T01:57:56.754Z,16.69
2017-05-28T01:58:37.634Z,16.64
2017-05-28T01:59:18.513Z,16.69
2017-05-28T01:59:59.426Z,16.64
2017-05-28T02:00:40.310Z,16.58
2017-05-28T02:01:21.186Z,16.61
2017-05-28T02:02:02.087Z,16.53
2017-05-28T02:02:42.986Z,16.54
2017-05-28T02:03:23.847Z,16.61
2017-05-28T02:04:04.753Z,16.5
2017-05-28T02:04:45.642Z,16.54
2017-05-28T02:05:26.523Z,16.56
2017-05-28T02:06:07.403Z,16.53
2017-05-28T02:06:48.342Z,16.47
2017-05-28T02:07:29.206Z,16.53
2017-05-28T02:08:10.113Z,16.47
2017-05-28T02:08:51.009Z,16.43
2017-05-28T02:09:31.891Z,16.47
2017-05-28T02:10:12.782Z,16.53
2017-05-28T02:10:53.671Z,16.49
2017-05-28T02:11:34.550Z,16.46
2017-05-28T02:12:15.453Z,16.39
2017-05-28T02:12:56.347Z,16.46
2017-05-28T02:13:37.225Z,16.42
2017-05-28T02:14:18.105Z,16.38
2017-05-28T02:14:59.020Z,16.38
2017-05-28T02:15:39.906Z,16.39
2017-05-28T02:16:20.780Z,16.29
2017-05-28T02:17:01.676Z,16.43
2017-05-28T02:17:42.556Z,16.33
2017-05-28T02:18:23.437Z,16.33
2017-05-28T02:19:04.336Z,16.35
2017-05-28T02:19:45.252Z,16.29
2017-05-28T02:20:26.175Z,16.29
2017-05-28T02:21:07.075Z,16.29
2017-05-28T02:21:47.942Z,16.28
2017-05-28T02:22:28.833Z,16.28
2017-05-28T02:23:09.723Z,16.24
2017-05-28T02:23:50.604Z,16.28
2017-05-28T02:25:18.695Z,16.24
2017-05-28T02:25:59.602Z,16.16
2017-05-28T02:26:40.486Z,16.24
2017-05-28T02:27:21.393Z,16.24
2017-05-28T02:28:02.295Z,16.13
2017-05-28T02:28:43.173Z,16.16
2017-05-28T02:29:24.059Z,16.1
2017-05-28T02:30:04.954Z,16.16
2017-05-28T02:30:45.833Z,16.15
2017-05-28T02:31:26.718Z,16.09
2017-05-28T02:32:07.623Z,16.12
2017-05-28T02:32:48.509Z,16.04
2017-05-28T02:33:29.397Z,16.02
2017-05-28T02:34:10.290Z,16.1
2017-05-28T02:34:51.182Z,16.1
2017-05-28T02:35:32.058Z,16.01
2017-05-28T02:36:12.947Z,16.05
2017-05-28T02:36:53.842Z,16.08
2017-05-28T02:37:34.717Z,15.97
2017-05-28T02:38:15.598Z,16
2017-05-28T02:38:56.482Z,16
2017-05-28T02:39:37.377Z,15.9
2017-05-28T02:40:18.255Z,15.97
2017-05-28T02:40:59.142Z,15.97
2017-05-28T02:41:40.040Z,15.94
2017-05-28T02:42:20.924Z,15.91
2017-05-28T02:43:01.802Z,15.91
2017-05-28T02:43:42.690Z,15.94
2017-05-28T02:44:23.577Z,15.92
2017-05-28T02:45:04.458Z,15.9
2017-05-28T02:45:45.360Z,15.94
2017-05-28T02:46:26.252Z,15.91
2017-05-28T02:47:07.156Z,15.97
2017-05-28T02:47:48.064Z,15.91
2017-05-28T02:48:28.951Z,15.95
2017-05-28T02:49:09.838Z,15.91
2017-05-28T02:49:50.724Z,15.92
2017-05-28T02:50:31.631Z,15.9
2017-05-28T02:51:12.530Z,15.88
2017-05-28T02:51:53.428Z,15.91
2017-05-28T02:52:34.323Z,15.83
2017-05-28T02:53:15.250Z,15.88
2017-05-28T02:53:56.132Z,15.94
2017-05-28T02:54:37.031Z,15.88
2017-05-28T02:55:17.931Z,15.91
2017-05-28T02:55:58.799Z,15.95
2017-05-28T02:56:39.683Z,15.95
2017-05-28T02:57:20.602Z,15.94
2017-05-28T02:58:01.490Z,15.88
2017-05-28T02:58:42.387Z,15.94
2017-05-28T02:59:23.276Z,15.91
2017-05-28T03:00:04.156Z,15.86
2017-05-28T03:00:45.048Z,15.84
2017-05-28T03:01:25.969Z,15.84
2017-05-28T03:02:06.825Z,15.8
2017-05-28T03:02:47.699Z,15.75
2017-05-28T03:03:28.595Z,15.79
2017-05-28T03:04:09.503Z,15.8
2017-05-28T03:04:50.389Z,15.73
2017-05-28T03:05:31.268Z,15.68
2017-05-28T03:06:12.157Z,15.72
2017-05-28T03:06:53.035Z,15.73
2017-05-28T03:07:33.941Z,15.75
2017-05-28T03:08:14.832Z,15.67
2017-05-28T03:08:55.717Z,15.7
2017-05-28T03:09:36.607Z,15.67
2017-05-28T03:10:17.507Z,15.67
2017-05-28T03:10:58.387Z,15.61
2017-05-28T03:11:39.273Z,15.62
2017-05-28T03:12:20.168Z,15.64
2017-05-28T03:13:01.078Z,15.7
2017-05-28T03:13:41.939Z,15.64
2017-05-28T03:14:22.833Z,15.61
2017-05-28T03:15:03.735Z,15.62
2017-05-28T03:15:44.613Z,15.62
2017-05-28T03:16:25.502Z,15.62
2017-05-28T03:17:06.390Z,15.62
2017-05-28T03:17:47.268Z,15.65
2017-05-28T03:18:28.131Z,15.58
2017-05-28T03:19:08.997Z,15.59
2017-05-28T03:19:49.906Z,15.55
2017-05-28T03:20:30.801Z,15.47
2017-05-28T03:21:11.672Z,15.59
2017-05-28T03:21:52.580Z,15.55
2017-05-28T03:22:33.477Z,15.51
2017-05-28T03:23:14.342Z,15.47
2017-05-28T03:23:55.198Z,15.46
2017-05-28T03:24:36.083Z,15.51
2017-05-28T03:25:16.963Z,15.47
2017-05-28T03:25:57.862Z,15.4
2017-05-28T03:26:38.747Z,15.47
2017-05-28T03:27:19.636Z,15.42
2017-05-28T03:28:52.867Z,15.43
2017-05-28T03:29:33.751Z,15.43
2017-05-28T03:30:14.635Z,15.47
2017-05-28T03:30:55.527Z,15.52
2017-05-28T03:31:36.406Z,15.51
2017-05-28T03:32:17.310Z,15.46
2017-05-28T03:32:58.196Z,15.44
2017-05-28T03:33:39.084Z,15.47
2017-05-28T03:34:19.961Z,15.49
2017-05-28T03:35:00.846Z,15.47
2017-05-28T03:35:41.732Z,15.49
2017-05-28T03:36:22.615Z,15.55
2017-05-28T03:37:03.489Z,15.47
2017-05-28T03:37:44.377Z,15.49
2017-05-28T03:38:25.310Z,15.51
2017-05-28T03:39:06.174Z,15.57
2017-05-28T03:39:47.057Z,15.55
2017-05-28T03:40:27.951Z,15.58
2017-05-28T03:41:08.843Z,15.55
2017-05-28T03:41:49.734Z,15.59
2017-05-28T03:42:30.619Z,15.64
2017-05-28T03:43:11.516Z,15.61
2017-05-28T03:43:52.407Z,15.67
2017-05-28T03:44:33.294Z,15.7
2017-05-28T03:45:14.177Z,15.7
2017-05-28T03:45:55.084Z,15.7
2017-05-28T03:46:35.958Z,15.67
2017-05-28T03:47:16.851Z,15.67
2017-05-28T03:47:57.744Z,15.72
2017-05-28T03:48:38.638Z,15.75
2017-05-28T03:49:19.516Z,15.72
2017-05-28T03:50:00.414Z,15.75
2017-05-28T03:50:41.328Z,15.82
2017-05-28T03:51:22.209Z,15.86
2017-05-28T03:52:03.113Z,15.82
2017-05-28T03:52:44.007Z,15.91
2017-05-28T03:53:24.884Z,15.88
2017-05-28T03:54:05.793Z,15.91
2017-05-28T03:54:46.674Z,15.9
2017-05-28T03:55:27.555Z,15.86
2017-05-28T03:56:08.437Z,15.91
2017-05-28T03:56:49.330Z,15.92
2017-05-28T03:57:30.217Z,15.86
2017-05-28T03:58:11.088Z,15.8
2017-05-28T03:58:51.999Z,15.91
2017-05-28T03:59:32.888Z,15.88
2017-05-28T04:00:13.760Z,15.86
2017-05-28T04:00:54.648Z,15.84
2017-05-28T04:01:35.499Z,15.84
2017-05-28T04:02:16.393Z,15.9
2017-05-28T04:02:57.277Z,15.91
2017-05-28T04:03:38.155Z,15.83
2017-05-28T04:04:19.070Z,15.91
2017-05-28T04:04:59.951Z,15.9
2017-05-28T04:05:40.821Z,15.95
2017-05-28T04:06:21.701Z,15.88
2017-05-28T04:07:02.594Z,15.91
2017-05-28T04:07:43.496Z,15.86
2017-05-28T04:08:24.361Z,15.91
2017-05-28T04:09:05.243Z,15.84
2017-05-28T04:09:46.148Z,15.88
2017-05-28T04:10:27.014Z,15.95
2017-05-28T04:11:07.902Z,15.95
2017-05-28T04:11:48.776Z,15.88
2017-05-28T04:12:29.686Z,15.92
2017-05-28T04:13:10.583Z,15.98
2017-05-28T04:13:51.492Z,15.94
2017-05-28T04:14:32.378Z,15.97
2017-05-28T04:15:13.946Z,16
2017-05-28T04:15:54.820Z,15.94
2017-05-28T04:16:35.695Z,16.04
2017-05-28T04:17:16.585Z,16.04
2017-05-28T04:17:57.498Z,15.97
2017-05-28T04:18:38.358Z,16.05
2017-05-28T04:19:19.243Z,16.05
2017-05-28T04:20:00.167Z,16.1
2017-05-28T04:20:41.058Z,16.12
2017-05-28T04:21:21.955Z,16.16
2017-05-28T04:22:02.840Z,16.1
2017-05-28T04:22:43.729Z,16.09
2017-05-28T04:23:24.652Z,16.24
2017-05-28T04:24:05.543Z,16.23
2017-05-28T04:24:46.433Z,16.26
2017-05-28T04:25:27.324Z,16.24
2017-05-28T04:26:08.216Z,16.2
2017-05-28T04:26:49.110Z,16.28
2017-05-28T04:27:30.012Z,16.26
2017-05-28T04:28:10.897Z,16.35
2017-05-28T04:28:51.787Z,16.38
2017-05-28T04:29:32.707Z,16.31
2017-05-28T04:30:13.607Z,16.38
2017-05-28T04:30:54.495Z,16.38
2017-05-28T04:31:35.373Z,16.39
2017-05-28T04:32:16.254Z,16.47
2017-05-28T04:32:57.156Z,16.5
2017-05-28T04:33:38.039Z,16.51
2017-05-28T04:34:18.930Z,16.43
2017-05-28T04:34:59.820Z,16.5
2017-05-28T04:35:40.716Z,16.43
2017-05-28T04:36:21.597Z,16.43
2017-05-28T04:37:02.507Z,16.5
2017-05-28T04:37:43.400Z,16.47
2017-05-28T04:38:24.278Z,16.53
2017-05-28T04:39:05.179Z,16.54
2017-05-28T04:39:46.065Z,16.5
2017-05-28T04:40:26.953Z,16.64
2017-05-28T04:41:07.869Z,16.65
2017-05-28T04:41:48.741Z,16.64
2017-05-28T04:42:29.619Z,16.6
2017-05-28T04:43:10.519Z,16.64
2017-05-28T04:43:51.422Z,16.64
2017-05-28T04:44:32.290Z,16.71
2017-05-28T04:45:13.170Z,16.65
2017-05-28T04:45:54.068Z,16.68
2017-05-28T04:46:34.966Z,16.69
2017-05-28T04:47:15.837Z,16.78
2017-05-28T04:47:56.751Z,16.74
2017-05-28T04:48:37.635Z,16.74
2017-05-28T04:49:18.521Z,16.84
2017-05-28T04:49:59.415Z,16.83
2017-05-28T04:50:40.318Z,16.87
2017-05-28T04:51:21.179Z,16.89
2017-05-28T04:52:02.071Z,16.87
2017-05-28T04:52:42.993Z,16.91
2017-05-28T04:53:23.854Z,16.96
2017-05-28T04:54:04.756Z,16.96
2017-05-28T04:54:45.643Z,16.96
2017-05-28T04:55:26.519Z,17.04
2017-05-28T04:56:07.399Z,17.06
2017-05-28T04:56:48.283Z,17.02
2017-05-28T04:57:29.185Z,17.05
2017-05-28T04:58:10.072Z,17.15
2017-05-28T04:58:50.970Z,17.15
2017-05-28T04:59:31.872Z,17.22
2017-05-28T05:00:12.764Z,17.27
2017-05-28T05:00:53.662Z,17.24
2017-05-28T05:01:34.546Z,17.27
2017-05-28T05:02:15.430Z,17.27
2017-05-28T05:02:56.328Z,17.34
2017-05-28T05:03:37.221Z,17.36
2017-05-28T05:04:18.090Z,17.38
2017-05-28T05:04:58.964Z,17.36
2017-05-28T05:05:39.868Z,17.48
2017-05-28T05:06:20.768Z,17.63
2017-05-28T05:07:01.631Z,17.57
2017-05-28T05:07:42.530Z,17.57
2017-05-28T05:08:23.422Z,17.65
2017-05-28T05:09:04.288Z,17.6
2017-05-28T05:10:42.678Z,17.7
2017-05-28T05:11:23.553Z,17.68
2017-05-28T05:12:04.432Z,17.79
2017-05-28T05:12:45.334Z,17.85
2017-05-28T05:13:26.216Z,17.82
2017-05-28T05:14:07.086Z,17.86
2017-05-28T05:14:48.011Z,17.79
2017-05-28T05:15:28.898Z,17.92
2017-05-28T05:16:09.782Z,17.82
2017-05-28T05:16:50.671Z,17.89
2017-05-28T05:17:31.572Z,17.95
2017-05-28T05:18:12.450Z,18
2017-05-28T05:19:45.743Z,18.01
2017-05-28T05:20:26.631Z,18.05
2017-05-28T05:21:07.533Z,18.08
2017-05-28T05:21:48.403Z,18.05
2017-05-28T05:22:29.302Z,18.13
2017-05-28T05:23:10.204Z,18.22
2017-05-28T05:23:51.091Z,18.23
2017-05-28T05:24:31.984Z,18.34
2017-05-28T05:25:12.881Z,18.34
2017-05-28T05:25:53.768Z,18.34
2017-05-28T05:26:34.640Z,18.34
2017-05-28T05:27:15.535Z,18.49
2017-05-28T05:27:56.429Z,18.43
2017-05-28T05:28:37.299Z,18.52
2017-05-28T05:29:18.184Z,18.55
2017-05-28T05:29:59.078Z,18.55
2017-05-28T05:30:39.961Z,18.56
2017-05-28T05:31:20.843Z,18.53
2017-05-28T05:32:01.743Z,18.7
2017-05-28T05:32:42.637Z,18.73
2017-05-28T05:33:23.516Z,18.73
2017-05-28T05:34:04.409Z,18.73
2017-05-28T05:34:45.315Z,18.77
2017-05-28T05:35:26.222Z,18.78
2017-05-28T05:36:07.115Z,18.86
2017-05-28T05:36:48.000Z,18.92
2017-05-28T05:37:28.884Z,18.89
2017-05-28T05:38:09.812Z,19.02
2017-05-28T05:38:50.688Z,19.07
2017-05-28T05:39:31.585Z,19.09
2017-05-28T05:40:12.480Z,19
2017-05-28T05:40:53.373Z,19.11
2017-05-28T05:41:34.269Z,19.12
2017-05-28T05:42:15.158Z,19.11
2017-05-28T05:42:56.037Z,19.22
2017-05-28T05:43:36.929Z,19.29
2017-05-28T05:44:17.821Z,19.29
2017-05-28T05:44:58.710Z,19.27
2017-05-28T05:45:39.611Z,19.24
2017-05-28T05:46:20.511Z,19.27
2017-05-28T05:47:01.395Z,19.37
2017-05-28T05:47:42.282Z,19.45
2017-05-28T05:48:23.193Z,19.44
2017-05-28T05:49:04.086Z,19.47
2017-05-28T05:49:44.989Z,19.49
2017-05-28T05:50:25.867Z,19.54
2017-05-28T05:51:06.752Z,19.62
2017-05-28T05:51:47.630Z,19.7
2017-05-28T05:52:28.527Z,19.73
2017-05-28T05:53:09.415Z,19.77
2017-05-28T05:53:50.294Z,19.85
2017-05-28T05:54:31.199Z,19.82
2017-05-28T05:55:12.082Z,19.86
2017-05-28T05:55:52.969Z,19.84
2017-05-28T05:56:33.860Z,19.86
2017-05-28T05:57:14.745Z,19.82
2017-05-28T05:57:55.638Z,19.94
2017-05-28T05:58:36.518Z,20.02
2017-05-28T05:59:17.417Z,20.07
2017-05-28T05:59:58.311Z,20.19
2017-05-28T06:00:39.207Z,20.06
2017-05-28T06:01:20.100Z,20.19
2017-05-28T06:02:00.993Z,20.31
2017-05-28T06:02:41.897Z,20.36
2017-05-28T06:03:22.792Z,20.4
2017-05-28T06:04:03.677Z,20.52
2017-05-28T06:04:44.580Z,20.56
2017-05-28T06:05:25.478Z,20.67
2017-05-28T06:06:06.377Z,20.74
2017-05-28T06:06:47.263Z,20.88
2017-05-28T06:07:28.164Z,20.96
2017-05-28T06:08:09.061Z,20.97
2017-05-28T06:08:49.953Z,20.99
2017-05-28T06:09:30.852Z,21.12
2017-05-28T06:10:11.760Z,21.12
2017-05-28T06:10:52.634Z,21.21
2017-05-28T06:11:33.535Z,21.29
2017-05-28T06:12:14.435Z,21.4
2017-05-28T06:12:55.327Z,21.62
2017-05-28T06:13:36.237Z,22
2017-05-28T06:14:17.130Z,22.29
2017-05-28T06:14:58.021Z,22.7
2017-05-28T06:15:38.927Z,23.1
2017-05-28T06:16:19.832Z,23.21
2017-05-28T06:17:00.745Z,23.58
2017-05-28T06:17:41.645Z,23.74
2017-05-28T06:18:22.550Z,24.13
2017-05-28T06:19:03.448Z,24.42
2017-05-28T06:19:44.328Z,24.55
2017-05-28T06:20:25.247Z,24.76
2017-05-28T06:21:06.148Z,24.92
2017-05-28T06:21:47.052Z,24.98
2017-05-28T06:22:28.002Z,25.28
2017-05-28T06:23:08.845Z,25.53
2017-05-28T06:23:49.757Z,25.75
2017-05-28T06:24:30.654Z,25.81
2017-05-28T06:25:11.576Z,26.22
2017-05-28T06:25:52.470Z,26.26
2017-05-28T06:26:33.382Z,26.15
2017-05-28T06:27:14.280Z,26.38
2017-05-28T06:27:55.173Z,26.34
2017-05-28T06:28:36.079Z,26.38
2017-05-28T06:29:16.962Z,26.53
2017-05-28T06:29:57.880Z,26.34
2017-05-28T06:30:38.779Z,26.51
2017-05-28T06:31:19.679Z,26.84
2017-05-28T06:32:00.572Z,27.14
2017-05-28T06:32:41.531Z,27.29
2017-05-28T06:33:22.388Z,27.35
2017-05-28T06:34:03.302Z,27.33
2017-05-28T06:34:44.208Z,27.2
2017-05-28T06:35:25.120Z,27.35
2017-05-28T06:36:06.031Z,27.45
2017-05-28T06:36:46.963Z,27.45
2017-05-28T06:37:27.857Z,27.54
2017-05-28T06:38:08.785Z,27.54
2017-05-28T06:38:49.681Z,27.54
2017-05-28T06:39:30.579Z,27.52
2017-05-28T06:40:11.482Z,27.48
2017-05-28T06:40:52.391Z,27.71
2017-05-28T06:41:33.297Z,28.08
2017-05-28T06:42:14.288Z,28.25
2017-05-28T06:42:55.201Z,28.48
2017-05-28T06:43:36.096Z,28.79
2017-05-28T06:44:17.018Z,28.98
2017-05-28T06:44:57.917Z,28.82
2017-05-28T06:45:38.837Z,29.12
2017-05-28T06:46:19.740Z,27.78
2017-05-28T06:47:00.654Z,28.42
2017-05-28T06:47:41.559Z,29.02
2017-05-28T06:48:22.448Z,29.45
2017-05-28T06:49:03.354Z,29.54
2017-05-28T06:49:44.259Z,29.84
2017-05-28T06:50:25.161Z,29.76
2017-05-28T06:51:06.064Z,29.88
2017-05-28T06:51:46.979Z,29.76
2017-05-28T06:52:27.878Z,29.73
2017-05-28T06:53:08.805Z,29.5
2017-05-28T06:53:49.694Z,28.66
2017-05-28T06:54:30.599Z,29.04
2017-05-28T06:55:11.503Z,29.17
2017-05-28T06:55:52.418Z,29.16
2017-05-28T06:56:33.316Z,29.32
2017-05-28T06:57:14.222Z,29.66
2017-05-28T06:57:55.119Z,29.84
2017-05-28T06:58:36.017Z,30.08
2017-05-28T06:59:16.924Z,30.05
2017-05-28T06:59:57.828Z,29.88
2017-05-28T07:00:38.787Z,29.23
2017-05-28T07:01:19.645Z,29.19
2017-05-28T07:02:01.984Z,29.17
2017-05-28T07:02:42.894Z,29.07
2017-05-28T07:03:23.801Z,29.17
2017-05-28T07:04:04.761Z,29.29
2017-05-28T07:04:45.662Z,29.23
2017-05-28T07:05:26.564Z,29.2
2017-05-28T07:06:07.459Z,29.44
2017-05-28T07:06:48.373Z,29.76
2017-05-28T07:07:29.274Z,29.82
2017-05-28T07:08:10.182Z,29.82
2017-05-28T07:08:51.090Z,29.98
2017-05-28T07:09:31.999Z,30.05
2017-05-28T07:10:12.915Z,29.88
2017-05-28T07:10:53.828Z,29.71
2017-05-28T07:11:34.738Z,29.65
2017-05-28T07:12:15.646Z,29.72
2017-05-28T07:12:56.552Z,29.65
2017-05-28T07:13:37.461Z,29.68
2017-05-28T07:14:18.377Z,29.57
2017-05-28T07:14:59.276Z,29.54
2017-05-28T07:15:40.197Z,29.71
2017-05-28T07:16:21.093Z,29.76
2017-05-28T07:17:02.005Z,29.78
2017-05-28T07:17:42.912Z,29.81
2017-05-28T07:18:23.820Z,29.79
2017-05-28T07:19:04.722Z,29.57
2017-05-28T07:19:45.635Z,29.54
2017-05-28T07:20:26.526Z,29.6
2017-05-28T07:21:07.431Z,29.81
2017-05-28T07:21:48.333Z,29.95
2017-05-28T07:22:29.226Z,29.93
2017-05-28T07:23:10.135Z,29.59
2017-05-28T07:23:51.041Z,29.73
2017-05-28T07:24:31.948Z,29.6
2017-05-28T07:25:12.864Z,29.42
2017-05-28T07:25:53.793Z,29.47
2017-05-28T07:26:34.707Z,29.54
2017-05-28T07:27:15.615Z,29.51
2017-05-28T07:27:56.527Z,29.53
2017-05-28T07:28:37.435Z,29.66
2017-05-28T07:29:18.344Z,29.34
2017-05-28T07:29:59.244Z,29.86
2017-05-28T07:30:40.296Z,30
2017-05-28T07:31:21.202Z,30.02
2017-05-28T07:32:02.108Z,30
2017-05-28T07:32:43.032Z,29.81
2017-05-28T07:33:23.926Z,29.88
2017-05-28T07:34:04.836Z,29.75
2017-05-28T07:34:45.740Z,29.47
2017-05-28T07:35:26.645Z,29.54
2017-05-28T07:36:07.551Z,29.53
2017-05-28T07:36:48.493Z,29.57
2017-05-28T07:37:29.402Z,29.57
2017-05-28T07:38:10.317Z,29.49
2017-05-28T07:38:51.222Z,29.57
2017-05-28T07:39:32.132Z,29.56
2017-05-28T07:40:13.032Z,29.56
2017-05-28T07:40:53.939Z,29.71
2017-05-28T07:41:34.833Z,29.9
2017-05-28T07:42:15.745Z,30.05
2017-05-28T07:42:56.656Z,30.28
2017-05-28T07:43:37.568Z,30.23
2017-05-28T07:44:18.467Z,30.48
2017-05-28T07:44:59.400Z,30.68
2017-05-28T07:45:40.306Z,30.83
2017-05-28T07:46:21.226Z,30.85
2017-05-28T07:47:02.156Z,30.87
2017-05-28T07:47:43.061Z,30.87
2017-05-28T07:48:23.977Z,30.61
2017-05-28T07:49:04.888Z,30.69
2017-05-28T07:49:45.804Z,30.73
2017-05-28T07:50:26.702Z,30.7
2017-05-28T07:51:07.611Z,30.94
2017-05-28T07:51:48.516Z,31.1
2017-05-28T07:52:29.430Z,31.14
2017-05-28T07:53:10.343Z,31.39
2017-05-28T07:53:51.256Z,31.65
2017-05-28T07:54:32.165Z,31.92
2017-05-28T07:55:13.094Z,31.8
2017-05-28T07:55:54.004Z,31.65
2017-05-28T07:56:34.918Z,31.56
2017-05-28T07:57:15.825Z,31.56
2017-05-28T07:57:56.732Z,31.49
2017-05-28T07:58:37.648Z,31.34
2017-05-28T07:59:18.571Z,31.56
2017-05-28T07:59:59.474Z,31.51
2017-05-28T08:00:40.391Z,31.34
2017-05-28T08:01:21.296Z,31.51
2017-05-28T08:02:02.214Z,31.59
2017-05-28T08:02:43.128Z,31.65
2017-05-28T08:03:24.054Z,31.29
2017-05-28T08:04:04.958Z,30.59
2017-05-28T08:04:45.867Z,31.1
2017-05-28T08:05:26.781Z,31.27
2017-05-28T08:06:07.693Z,31.46
2017-05-28T08:06:48.617Z,31.36
2017-05-28T08:07:29.538Z,31.59
2017-05-28T08:08:10.441Z,31.74
2017-05-28T08:08:51.821Z,31.76
2017-05-28T08:09:32.738Z,31.4
2017-05-28T08:10:13.691Z,31.39
2017-05-28T08:10:54.615Z,31.31
2017-05-28T08:11:35.533Z,31.29
2017-05-28T08:12:16.441Z,31.31
2017-05-28T08:12:57.361Z,31.4
2017-05-28T08:13:38.284Z,31.52
2017-05-28T08:14:19.192Z,31.66
2017-05-28T08:15:00.148Z,32.03
2017-05-28T08:15:41.016Z,32.14
2017-05-28T08:16:21.984Z,32
2017-05-28T08:17:02.843Z,32.11
2017-05-28T08:17:43.759Z,32.15
2017-05-28T08:18:24.693Z,32.4
2017-05-28T08:19:05.594Z,32.4
2017-05-28T08:19:46.506Z,32.01
2017-05-28T08:20:27.435Z,31.96
2017-05-28T08:21:08.352Z,31.81
2017-05-28T08:21:49.302Z,31.62
2017-05-28T08:22:30.225Z,31.51
2017-05-28T08:23:11.182Z,31.46
2017-05-28T08:23:52.102Z,31.43
2017-05-28T08:24:33.010Z,31.37
2017-05-28T08:25:13.933Z,31.49
2017-05-28T08:25:54.839Z,31.39
2017-05-28T08:26:35.758Z,31.42
2017-05-28T08:27:16.674Z,31.47
2017-05-28T08:27:57.592Z,31.44
2017-05-28T08:28:38.517Z,31.54
2017-05-28T08:29:19.435Z,31.34
2017-05-28T08:30:00.344Z,31.39
2017-05-28T08:30:41.252Z,31.34
2017-05-28T08:31:22.161Z,31.51
2017-05-28T08:32:03.143Z,31.66
2017-05-28T08:32:44.069Z,31.9
2017-05-28T08:33:24.993Z,31.87
2017-05-28T08:34:05.923Z,31.33
2017-05-28T08:34:46.835Z,31.65
2017-05-28T08:35:27.759Z,31.97
2017-05-28T08:36:08.688Z,32.67
2017-05-28T08:36:49.601Z,32.93
2017-05-28T08:37:30.521Z,33.34
2017-05-28T08:38:11.470Z,33.58
2017-05-28T08:38:52.363Z,34.01
2017-05-28T08:39:33.272Z,34.17
2017-05-28T08:40:14.186Z,33.68
2017-05-28T08:40:55.114Z,34.21
2017-05-28T08:41:36.040Z,34.43
2017-05-28T08:42:16.963Z,34.58
2017-05-28T08:42:57.893Z,34.7
2017-05-28T08:43:38.821Z,34.75
2017-05-28T08:44:19.730Z,34.27
2017-05-28T08:45:00.653Z,34.06
2017-05-28T08:45:41.572Z,34.86
2017-05-28T08:46:22.484Z,35.04
2017-05-28T08:47:03.420Z,35.19
2017-05-28T08:47:44.340Z,35.14
2017-05-28T08:48:25.266Z,35.27
2017-05-28T08:49:06.179Z,35.1
2017-05-28T08:49:47.096Z,35.48
2017-05-28T08:50:28.015Z,35.49
2017-05-28T08:51:08.942Z,35.17
2017-05-28T08:51:49.858Z,34.5
2017-05-28T08:52:30.773Z,34.99
2017-05-28T08:53:11.689Z,35.07
2017-05-28T08:53:52.607Z,35.31